Time;durP1;ratioP1;P1;durP2;ratioP2;P2;SDS_P1;SDS_P2;PMS_P1;PMS_P2;Temp;Humidity;BMP_temperature;BMP_pressure;BME280_temperature;BME280_humidity;BME280_pressure;Samples;Min_cycle;Max_cycle;Signal;HPM_P1;HPM_P2
2021/07/26 00:00:16;;;;;;;;;;;;;;;20.64;56.31;101269.12;461176;113;923073;-75
2021/07/26 00:01:19;;;;;;;;;;;;;;;20.64;56.43;101271.89;460699;113;922690;-76
2021/07/26 00:02:23;;;;;;;;;;;;;;;20.62;56.50;101260.26;459825;116;923116;-76
2021/07/26 00:03:27;;;;;;;;;;;;;;;20.59;56.23;101269.08;451791;118;922702;-75
2021/07/26 00:04:30;;;;;;;;;;;;;;;20.57;56.12;101266.56;451391;116;922662;-74
2021/07/26 00:05:33;;;;;;;;;;;;;;;20.54;56.06;101261.56;461444;115;922635;-75
2021/07/26 00:06:37;;;;;;;;;;;;;;;20.50;56.13;101262.36;460723;115;922757;-75
2021/07/26 00:07:40;;;;;;;;;;;;;;;20.48;56.32;101267.33;461120;115;922629;-75
2021/07/26 00:08:43;;;;;;;;;;;;;;;20.45;56.44;101270.63;462218;115;922712;-74
2021/07/26 00:09:46;;;;;;;;;;;;;;;20.42;56.62;101266.44;461164;115;923130;-76
2021/07/26 00:11:00;;;;;;;;;;;;;;;20.38;56.65;101263.38;460346;115;924331;-74
2021/07/26 00:12:04;;;;;;;;;;;;;;;20.35;56.74;101263.88;459886;115;921565;-76
2021/07/26 00:13:08;;;;;;;;;;;;;;;20.32;56.90;101267.20;452436;115;922648;-76
2021/07/26 00:14:11;;;;;;;;;;;;;;;20.30;57.14;101262.97;452894;116;922579;-73
2021/07/26 00:15:14;;;;;;;;;;;;;;;20.29;57.22;101259.36;452353;118;923142;-76
2021/07/26 00:16:17;;;;;;;;;;;;;;;20.29;57.25;101259.36;460708;113;923202;-76
2021/07/26 00:17:21;;;;;;;;;;;;;;;20.30;57.31;101258.27;462045;115;922722;-73
2021/07/26 00:18:24;;;;;;;;;;;;;;;20.30;57.40;101266.58;462477;115;923559;-76
2021/07/26 00:19:27;;;;;;;;;;;;;;;20.31;57.43;101268.28;463266;115;922583;-76
2021/07/26 00:20:30;;;;;;;;;;;;;;;20.30;57.50;101262.97;462686;115;923130;-76
2021/07/26 00:21:33;;;;;;;;;;;;;;;20.31;57.56;101261.88;452150;116;922656;-76
2021/07/26 00:22:38;;;;;;;;;;;;;;;20.29;57.60;101262.13;452700;116;923142;-75
2021/07/26 00:23:42;;;;;;;;;;;;;;;20.29;57.68;101262.13;452518;118;921490;-75
2021/07/26 00:24:45;;;;;;;;;;;;;;;20.28;57.75;101259.65;462118;115;921573;-75
2021/07/26 00:25:49;;;;;;;;;;;;;;;20.27;57.85;101269.88;462063;115;921452;-73
2021/07/26 00:26:52;;;;;;;;;;;;;;;20.26;58.01;101268.20;461336;115;921509;-75
2021/07/26 00:27:56;;;;;;;;;;;;;;;20.24;58.17;101262.08;462192;115;921548;-77
2021/07/26 00:28:59;;;;;;;;;;;;;;;20.22;58.27;101267.07;460909;113;921428;-76
2021/07/26 00:30:02;;;;;;;;;;;;;;;20.19;58.27;101269.50;461361;115;921429;-75
2021/07/26 00:31:05;;;;;;;;;;;;;;;20.15;58.32;101266.44;461202;115;921487;-75
2021/07/26 00:32:09;;;;;;;;;;;;;;;20.13;58.44;101270.55;460354;115;922668;-73
2021/07/26 00:33:40;;;;;;;;;;;;;;;20.11;58.53;101273.60;460664;115;922734;-76
2021/07/26 00:34:44;;;;;;;;;;;;;;;20.19;58.76;101266.73;489771;107;922647;-73
2021/07/26 00:35:47;;;;;;;;;;;;;;;20.09;58.87;101272.17;479572;109;922225;-76
2021/07/26 00:36:55;;;;;;;;;;;;;;;20.07;58.96;101275.20;479177;109;922644;-74
2021/07/26 00:37:59;;;;;;;;;;;;;;;20.06;59.10;101281.02;479961;109;922601;-76
2021/07/26 00:39:03;;;;;;;;;;;;;;;20.05;59.13;101276.57;478292;109;922679;-74
2021/07/26 00:40:09;;;;;;;;;;;;;;;20.03;59.32;101274.05;474877;111;922660;-74
2021/07/26 00:41:12;;;;;;;;;;;;;;;20.00;59.44;101277.36;473621;109;921565;-76
2021/07/26 00:42:16;;;;;;;;;;;;;;;19.97;59.67;101275.09;474780;111;922749;-72
2021/07/26 00:43:19;;;;;;;;;;;;;;;19.93;59.80;101272.02;468450;113;922697;-74
2021/07/26 00:44:23;;;;;;;;;;;;;;;19.92;59.88;101264.81;466335;113;922670;-73
2021/07/26 00:45:26;;;;;;;;;;;;;;;19.92;59.94;101266.73;462192;113;921591;-72
2021/07/26 00:46:30;;;;;;;;;;;;;;;19.93;59.98;101279.48;461933;113;922544;-73
2021/07/26 00:47:33;;;;;;;;;;;;;;;19.93;60.04;101262.88;461500;113;922673;-74
2021/07/26 00:48:36;;;;;;;;;;;;;;;19.93;60.14;101263.72;460064;113;922757;-73
2021/07/26 00:49:40;;;;;;;;;;;;;;;19.92;60.17;101270.34;455064;115;922555;-75
2021/07/26 00:50:44;;;;;;;;;;;;;;;19.91;60.29;101265.89;455970;115;922714;-74
2021/07/26 00:51:54;;;;;;;;;;;;;;;19.91;60.35;101262.29;460809;113;922647;-73
2021/07/26 00:52:57;;;;;;;;;;;;;;;19.90;60.43;101266.18;461320;114;925860;-76
2021/07/26 00:54:00;;;;;;;;;;;;;;;19.88;60.51;101266.43;462482;114;922604;-75
2021/07/26 00:55:04;;;;;;;;;;;;;;;19.89;60.54;101267.27;461242;114;922736;-76
2021/07/26 00:56:07;;;;;;;;;;;;;;;19.88;60.67;101262.83;461180;113;923111;-73
2021/07/26 00:57:11;;;;;;;;;;;;;;;19.89;60.74;101272.80;459925;114;922546;-75
2021/07/26 00:58:14;;;;;;;;;;;;;;;19.87;60.82;101274.98;460497;114;923161;-75
2021/07/26 00:59:17;;;;;;;;;;;;;;;19.86;60.88;101273.30;460789;114;922636;-75
2021/07/26 01:00:21;;;;;;;;;;;;;;;19.84;60.95;101268.05;464586;113;922703;-76
2021/07/26 01:01:24;;;;;;;;;;;;;;;19.82;61.05;101267.47;467700;113;923174;-76
2021/07/26 01:02:28;;;;;;;;;;;;;;;19.80;61.09;101271.58;467034;113;922669;-75
2021/07/26 01:03:31;;;;;;;;;;;;;;;19.79;61.09;101269.93;468718;113;922646;-73
2021/07/26 01:04:34;;;;;;;;;;;;;;;19.78;61.16;101276.55;456117;116;922707;-75
2021/07/26 01:05:37;;;;;;;;;;;;;;;19.78;61.20;101273.78;464781;113;922609;-73
2021/07/26 01:06:41;;;;;;;;;;;;;;;19.78;61.21;101273.78;463311;114;922740;-75
2021/07/26 01:07:45;;;;;;;;;;;;;;;19.78;61.20;101280.16;463881;114;922495;-75
2021/07/26 01:08:48;;;;;;;;;;;;;;;19.79;61.19;101278.23;463696;114;922840;-75
2021/07/26 01:09:51;;;;;;;;;;;;;;;19.79;61.26;101284.57;462583;114;923063;-74
2021/07/26 01:10:55;;;;;;;;;;;;;;;19.78;61.25;101282.08;461444;114;922739;-75
2021/07/26 01:11:58;;;;;;;;;;;;;;;19.77;61.31;101283.17;461886;113;923472;-75
2021/07/26 01:13:02;;;;;;;;;;;;;;;19.73;61.31;101280.09;463167;114;923152;-75
2021/07/26 01:14:06;;;;;;;;;;;;;;;19.70;61.32;101274.23;462493;114;922696;-75
2021/07/26 01:15:10;;;;;;;;;;;;;;;19.67;61.34;101275.59;463193;114;922622;-76
2021/07/26 01:16:14;;;;;;;;;;;;;;;19.65;61.34;101274.16;461963;113;921636;-74
2021/07/26 01:17:22;;;;;;;;;;;;;;;19.64;61.41;101280.79;461338;114;921310;-76
2021/07/26 01:18:27;;;;;;;;;;;;;;;19.64;61.44;101276.09;461614;114;921462;-76
2021/07/26 01:19:30;;;;;;;;;;;;;;;19.65;61.40;101274.16;460501;112;921596;-76
2021/07/26 01:20:33;;;;;;;;;;;;;;;19.64;61.35;101278.86;462059;113;921606;-76
2021/07/26 01:21:36;;;;;;;;;;;;;;;19.64;61.42;101272.48;455677;115;921498;-74
2021/07/26 01:22:39;;;;;;;;;;;;;;;19.63;61.45;101270.84;461352;116;921488;-75
2021/07/26 01:23:44;;;;;;;;;;;;;;;19.62;61.51;101269.16;462963;115;921469;-75
2021/07/26 01:24:47;;;;;;;;;;;;;;;19.60;61.56;101274.94;468724;113;921441;-75
2021/07/26 01:25:51;;;;;;;;;;;;;;;19.59;61.52;101270.50;466481;113;922740;-74
2021/07/26 01:26:54;;;;;;;;;;;;;;;19.58;61.46;101274.36;466178;113;922441;-74
2021/07/26 01:27:57;;;;;;;;;;;;;;;19.56;61.30;101273.80;467844;113;922779;-73
2021/07/26 01:29:01;;;;;;;;;;;;;;;19.56;61.14;101276.56;466755;113;922674;-75
2021/07/26 01:30:05;;;;;;;;;;;;;;;19.53;60.97;101277.90;466706;113;922707;-75
2021/07/26 01:31:10;;;;;;;;;;;;;;;19.51;60.80;101274.57;466035;113;922564;-75
2021/07/26 01:32:13;;;;;;;;;;;;;;;19.49;60.56;101279.52;467033;113;921581;-76
2021/07/26 01:33:17;;;;;;;;;;;;;;;19.46;60.52;101277.24;462023;113;921483;-75
2021/07/26 01:34:20;;;;;;;;;;;;;;;19.44;60.48;101273.89;462065;113;922580;-74
2021/07/26 01:35:24;;;;;;;;;;;;;;;19.43;60.37;101276.90;461029;113;922684;-73
2021/07/26 01:36:27;;;;;;;;;;;;;;;19.40;60.38;101281.03;453852;115;922777;-76
2021/07/26 01:37:30;;;;;;;;;;;;;;;19.38;60.34;101271.30;460780;114;922703;-76
2021/07/26 01:38:33;;;;;;;;;;;;;;;19.36;60.35;101274.31;455466;117;922739;-72
2021/07/26 01:39:37;;;;;;;;;;;;;;;19.35;60.34;101280.94;459031;113;922702;-73
2021/07/26 01:40:41;;;;;;;;;;;;;;;19.33;60.32;101280.38;459319;113;922738;-75
2021/07/26 01:41:44;;;;;;;;;;;;;;;19.31;60.38;101279.78;445465;117;922664;-76
2021/07/26 01:42:48;;;;;;;;;;;;;;;19.28;60.40;101274.77;453008;116;922478;-72
2021/07/26 01:45:07;;;;;;;;;;;;;;;19.24;60.57;101278.31;455522;116;922735;-73
2021/07/26 01:46:18;;;;;;;;;;;;;;;19.22;60.72;101280.48;453617;116;922725;-72
2021/07/26 01:47:21;;;;;;;;;;;;;;;19.19;60.82;101281.81;454613;116;922333;-74
2021/07/26 01:48:27;;;;;;;;;;;;;;;19.17;61.09;101278.48;453839;116;922669;-75
2021/07/26 01:49:41;;;;;;;;;;;;;;;19.16;61.26;101280.41;454677;115;921893;-75
2021/07/26 01:50:46;;;;;;;;;;;;;;;19.14;61.37;101281.75;453193;116;923162;-75
2021/07/26 01:51:49;;;;;;;;;;;;;;;19.12;61.52;101276.50;453425;115;922625;-75
2021/07/26 01:52:58;;;;;;;;;;;;;;;19.11;61.59;101285.03;453869;116;922667;-75
2021/07/26 01:54:02;;;;;;;;;;;;;;;19.08;61.65;101280.83;453756;115;922622;-75
2021/07/26 01:55:05;;;;;;;;;;;;;;;19.07;61.67;101290.24;453981;116;923184;-74
2021/07/26 01:56:09;;;;;;;;;;;;;;;19.06;61.81;101293.25;452569;116;921611;-74
2021/07/26 01:57:12;;;;;;;;;;;;;;;19.03;61.89;101290.98;452452;116;923189;-74
2021/07/26 01:58:16;;;;;;;;;;;;;;;19.02;61.88;101289.33;453322;115;923145;-74
2021/07/26 01:59:19;;;;;;;;;;;;;;;18.99;61.87;101293.42;452331;115;922622;-74
2021/07/26 02:00:22;;;;;;;;;;;;;;;18.97;61.72;101294.75;452429;116;923098;-74
2021/07/26 02:01:25;;;;;;;;;;;;;;;18.95;61.67;101295.03;451853;116;922654;-74
2021/07/26 02:02:31;;;;;;;;;;;;;;;18.94;61.66;101290.58;453248;115;923102;-74
2021/07/26 02:03:34;;;;;;;;;;;;;;;18.94;61.69;101292.51;452848;116;922654;-74
2021/07/26 02:04:37;;;;;;;;;;;;;;;18.94;61.78;101298.88;452124;116;921488;-75
2021/07/26 02:05:41;;;;;;;;;;;;;;;18.94;61.88;101293.34;454553;115;921916;-75
2021/07/26 02:06:44;;;;;;;;;;;;;;;18.94;61.91;101298.88;454997;116;921568;-75
2021/07/26 02:07:47;;;;;;;;;;;;;;;18.95;61.99;101296.95;455141;115;921510;-76
2021/07/26 02:08:50;;;;;;;;;;;;;;;18.94;62.04;101300.80;454144;116;921426;-75
2021/07/26 02:09:54;;;;;;;;;;;;;;;18.94;62.06;101295.27;454286;116;921737;-74
2021/07/26 02:10:57;;;;;;;;;;;;;;;18.95;62.06;101294.19;454715;115;921424;-74
2021/07/26 02:12:01;;;;;;;;;;;;;;;18.95;62.08;101296.95;447169;116;921591;-74
2021/07/26 02:13:04;;;;;;;;;;;;;;;18.95;62.13;101297.79;453237;116;922791;-75
2021/07/26 02:14:10;;;;;;;;;;;;;;;18.96;62.12;101299.47;461928;113;921560;-75
2021/07/26 02:15:14;;;;;;;;;;;;;;;18.98;62.13;101299.19;461992;113;922538;-74
2021/07/26 02:16:17;;;;;;;;;;;;;;;18.98;62.12;101297.27;456118;117;922687;-74
2021/07/26 02:17:20;;;;;;;;;;;;;;;18.99;62.03;101303.64;456574;117;923093;-75
2021/07/26 02:18:24;;;;;;;;;;;;;;;19.02;62.12;101303.15;456322;115;923272;-76
2021/07/26 02:19:28;;;;;;;;;;;;;;;19.02;62.10;101303.15;461334;113;922692;-73
2021/07/26 02:20:31;;;;;;;;;;;;;;;19.03;62.08;101299.27;446377;118;922703;-76
2021/07/26 02:21:34;;;;;;;;;;;;;;;19.02;62.13;101298.43;451940;116;922734;-75
2021/07/26 02:22:37;;;;;;;;;;;;;;;19.02;62.18;101297.63;459335;113;922660;-74
2021/07/26 02:23:41;;;;;;;;;;;;;;;19.01;62.28;101301.47;460647;113;922693;-74
2021/07/26 02:24:44;;;;;;;;;;;;;;;18.99;62.32;101301.71;445906;118;922618;-74
2021/07/26 02:25:47;;;;;;;;;;;;;;;18.98;62.33;101308.33;458563;113;922633;-75
2021/07/26 02:26:51;;;;;;;;;;;;;;;18.97;62.35;101306.64;447321;117;922669;-76
2021/07/26 02:27:54;;;;;;;;;;;;;;;18.97;62.40;101303.05;452568;115;923232;-74
2021/07/26 02:28:57;;;;;;;;;;;;;;;18.96;62.39;101309.69;462541;114;923643;-74
2021/07/26 02:30:01;;;;;;;;;;;;;;;18.96;62.37;101307.76;462479;113;922726;-76
2021/07/26 02:31:04;;;;;;;;;;;;;;;18.98;62.44;101301.95;462985;114;922700;-73
2021/07/26 02:32:07;;;;;;;;;;;;;;;18.99;62.52;101307.23;462617;115;922631;-75
2021/07/26 02:33:10;;;;;;;;;;;;;;;19.01;62.60;101307.84;453975;116;922717;-74
2021/07/26 02:34:14;;;;;;;;;;;;;;;19.03;62.61;101307.56;453388;116;922749;-76
2021/07/26 02:35:17;;;;;;;;;;;;;;;19.05;62.56;101308.16;465934;113;922744;-73
2021/07/26 02:36:20;;;;;;;;;;;;;;;19.07;62.52;101311.52;468075;113;922710;-74
2021/07/26 02:37:23;;;;;;;;;;;;;;;19.08;62.58;101310.40;467685;113;923061;-75
2021/07/26 02:38:26;;;;;;;;;;;;;;;19.08;62.61;101318.69;460408;113;922648;-75
2021/07/26 02:39:30;;;;;;;;;;;;;;;19.07;62.70;101311.52;455869;116;922659;-75
2021/07/26 02:40:33;;;;;;;;;;;;;;;19.07;62.75;101311.52;468235;113;922658;-73
2021/07/26 02:41:36;;;;;;;;;;;;;;;19.05;62.71;101311.76;465343;113;922747;-75
2021/07/26 02:42:40;;;;;;;;;;;;;;;19.05;62.79;101308.16;465350;113;921824;-75
2021/07/26 02:43:43;;;;;;;;;;;;;;;19.04;62.83;101312.84;465849;113;922649;-75
2021/07/26 02:44:47;;;;;;;;;;;;;;;19.03;62.86;101311.17;456398;114;922867;-75
2021/07/26 02:45:50;;;;;;;;;;;;;;;19.01;62.80;101305.08;465432;113;922738;-75
2021/07/26 02:46:53;;;;;;;;;;;;;;;18.99;62.69;101304.48;463409;113;922695;-75
2021/07/26 02:47:56;;;;;;;;;;;;;;;18.99;62.50;101309.17;465271;113;922650;-73
2021/07/26 02:48:59;;;;;;;;;;;;;;;18.98;62.51;101313.85;467612;113;922694;-76
2021/07/26 02:50:03;;;;;;;;;;;;;;;18.98;62.52;101319.38;468223;113;922670;-74
2021/07/26 02:51:07;;;;;;;;;;;;;;;18.97;62.43;101312.17;467324;113;922661;-75
2021/07/26 02:52:10;;;;;;;;;;;;;;;18.98;62.41;101313.85;467466;113;922535;-76
2021/07/26 02:53:13;;;;;;;;;;;;;;;18.99;62.40;101309.17;467610;113;922706;-75
2021/07/26 02:54:16;;;;;;;;;;;;;;;18.99;62.43;101321.06;468027;113;922678;-75
2021/07/26 02:55:20;;;;;;;;;;;;;;;19.00;62.39;101313.61;469135;113;922656;-76
2021/07/26 02:56:23;;;;;;;;;;;;;;;18.99;62.29;101314.70;455507;113;923644;-74
2021/07/26 02:57:26;;;;;;;;;;;;;;;18.99;62.18;101315.53;455479;115;922560;-74
2021/07/26 02:58:30;;;;;;;;;;;;;;;19.00;62.14;101324.66;464623;113;922699;-75
2021/07/26 02:59:34;;;;;;;;;;;;;;;19.01;62.17;101315.29;457154;116;921448;-76
2021/07/26 03:00:37;;;;;;;;;;;;;;;19.01;62.32;101318.05;457573;113;921546;-75
2021/07/26 03:01:41;;;;;;;;;;;;;;;19.02;62.43;101320.54;457370;114;921511;-75
2021/07/26 03:02:44;;;;;;;;;;;;;;;19.04;62.46;101328.59;456372;116;921479;-76
2021/07/26 03:03:47;;;;;;;;;;;;;;;19.06;62.43;101320.89;456111;114;921672;-74
2021/07/26 03:04:51;;;;;;;;;;;;;;;19.08;62.42;101325.06;456541;113;922141;-75
2021/07/26 03:05:54;;;;;;;;;;;;;;;19.11;62.50;101326.50;455865;113;921473;-75
2021/07/26 03:06:57;;;;;;;;;;;;;;;19.12;62.64;101326.25;455993;114;921611;-76
2021/07/26 03:08:00;;;;;;;;;;;;;;;19.14;62.67;101325.98;455544;116;921487;-75
2021/07/26 03:09:03;;;;;;;;;;;;;;;19.16;62.66;101326.57;459497;113;921670;-75
2021/07/26 03:10:07;;;;;;;;;;;;;;;19.17;62.64;101328.25;459700;113;922750;-75
2021/07/26 03:11:11;;;;;;;;;;;;;;;19.18;62.56;101329.09;458823;113;922735;-73
2021/07/26 03:12:16;;;;;;;;;;;;;;;19.20;62.51;101326.89;453977;113;922642;-75
2021/07/26 03:13:19;;;;;;;;;;;;;;;19.21;62.35;101325.80;462152;113;922696;-75
2021/07/26 03:14:22;;;;;;;;;;;;;;;19.22;62.20;101331.09;460088;116;923337;-73
2021/07/26 03:15:26;;;;;;;;;;;;;;;19.24;62.13;101331.66;462046;115;922566;-75
2021/07/26 03:16:29;;;;;;;;;;;;;;;19.26;62.05;101332.25;461822;115;922684;-74
2021/07/26 03:17:32;;;;;;;;;;;;;;;19.29;62.07;101333.69;460762;114;923113;-75
2021/07/26 03:18:36;;;;;;;;;;;;;;;19.31;62.11;101340.62;460813;114;922683;-75
2021/07/26 03:19:39;;;;;;;;;;;;;;;19.32;61.92;101334.00;458716;114;922727;-76
2021/07/26 03:20:44;;;;;;;;;;;;;;;19.34;61.83;101337.36;455294;113;922767;-75
2021/07/26 03:21:50;;;;;;;;;;;;;;;19.35;61.77;101340.97;467441;113;922455;-75
2021/07/26 03:23:00;;;;;;;;;;;;;;;19.37;61.66;101339.60;459844;113;923709;-75
2021/07/26 03:24:03;;;;;;;;;;;;;;;19.38;61.59;101340.44;458649;113;922706;-75
2021/07/26 03:25:07;;;;;;;;;;;;;;;19.40;61.56;101338.27;455525;116;922691;-74
2021/07/26 03:26:10;;;;;;;;;;;;;;;19.41;61.47;101335.23;455681;115;922531;-74
2021/07/26 03:27:13;;;;;;;;;;;;;;;19.43;61.52;101341.35;461096;113;922729;-74
2021/07/26 03:28:30;;;;;;;;;;;;;;;19.44;61.48;101345.80;463435;113;923610;-75
2021/07/26 03:29:33;;;;;;;;;;;;;;;19.45;61.32;101341.98;460434;114;922731;-74
2021/07/26 03:30:37;;;;;;;;;;;;;;;19.47;61.35;101337.01;454394;116;923109;-75
2021/07/26 03:31:40;;;;;;;;;;;;;;;19.48;61.38;101343.38;451425;116;922700;-74
2021/07/26 03:32:44;;;;;;;;;;;;;;;19.49;61.36;101336.77;462089;114;922707;-72
2021/07/26 03:33:47;;;;;;;;;;;;;;;19.51;61.31;101338.20;458849;114;924268;-76
2021/07/26 03:34:50;;;;;;;;;;;;;;;19.52;61.28;101342.61;460472;114;923174;-75
2021/07/26 03:35:54;;;;;;;;;;;;;;;19.54;61.31;101339.59;459056;114;922698;-76
2021/07/26 03:36:57;;;;;;;;;;;;;;;19.55;61.35;101336.58;459603;114;922660;-76
2021/07/26 03:38:00;;;;;;;;;;;;;;;19.57;61.33;101339.10;459764;114;922707;-75
2021/07/26 03:39:03;;;;;;;;;;;;;;;19.58;61.41;101337.98;459526;114;922812;-75
2021/07/26 03:40:07;;;;;;;;;;;;;;;19.60;61.50;101330.28;460394;114;922666;-74
2021/07/26 03:41:10;;;;;;;;;;;;;;;19.62;61.43;101338.33;460500;114;922683;-76
2021/07/26 03:42:13;;;;;;;;;;;;;;;19.64;61.37;101342.49;459505;114;923917;-73
2021/07/26 03:43:17;;;;;;;;;;;;;;;19.65;61.40;101340.56;456776;115;921689;-75
2021/07/26 03:44:20;;;;;;;;;;;;;;;19.67;61.34;101343.92;457087;115;921510;-76
2021/07/26 03:45:23;;;;;;;;;;;;;;;19.69;61.33;101347.25;452372;116;921425;-76
2021/07/26 03:46:26;;;;;;;;;;;;;;;19.71;61.18;101342.31;454351;116;921476;-76
2021/07/26 03:47:30;;;;;;;;;;;;;;;19.73;61.18;101337.37;454245;114;921535;-76
2021/07/26 03:48:33;;;;;;;;;;;;;;;19.74;61.16;101348.16;461369;114;921462;-81
2021/07/26 03:49:36;;;;;;;;;;;;;;;19.77;61.14;101346.82;461360;114;921527;-77
2021/07/26 03:50:40;;;;;;;;;;;;;;;19.79;61.12;101347.41;462201;114;921469;-78
2021/07/26 03:51:44;;;;;;;;;;;;;;;19.81;61.16;101347.97;462147;114;921508;-77
2021/07/26 03:52:49;;;;;;;;;;;;;;;19.84;61.11;101351.08;462557;114;921373;-77
2021/07/26 03:53:53;;;;;;;;;;;;;;;19.88;60.76;101343.92;458702;115;921369;-75
2021/07/26 03:54:56;;;;;;;;;;;;;;;19.91;60.48;101345.33;443778;117;921492;-73
2021/07/26 03:56:00;;;;;;;;;;;;;;;19.95;60.27;101346.51;457111;115;921389;-75
2021/07/26 03:57:03;;;;;;;;;;;;;;;19.98;60.10;101346.81;454599;114;921601;-74
2021/07/26 03:58:06;;;;;;;;;;;;;;;20.02;59.97;101346.28;455301;115;921436;-76
2021/07/26 03:59:09;;;;;;;;;;;;;;;20.05;60.10;101348.55;455657;115;921486;-73
2021/07/26 04:00:13;;;;;;;;;;;;;;;20.07;60.10;101343.61;455980;115;921429;-76
2021/07/26 04:01:18;;;;;;;;;;;;;;;20.08;60.04;101351.63;455866;115;922784;-77
2021/07/26 04:02:22;;;;;;;;;;;;;;;20.09;59.90;101350.54;459488;114;921579;-73
2021/07/26 04:03:30;;;;;;;;;;;;;;;20.12;59.69;101349.20;458981;114;923126;-76
2021/07/26 04:04:31;;;;;;;;;;;;;;;20.14;59.64;101345.05;459229;114;923084;-76
2021/07/26 04:05:40;;;;;;;;;;;;;;;20.16;59.46;101344.80;459870;114;921490;-76
2021/07/26 04:06:47;;;;;;;;;;;;;;;20.19;59.28;101355.34;460830;114;922562;-74
2021/07/26 04:07:49;;;;;;;;;;;;;;;20.20;59.21;101355.09;459695;114;922687;-76
2021/07/26 04:08:54;;;;;;;;;;;;;;;20.22;59.29;101341.84;459493;114;922882;-76
2021/07/26 04:10:02;;;;;;;;;;;;;;;20.25;59.38;101357.08;460395;114;922801;-74
2021/07/26 04:11:17;;;;;;;;;;;;;;;20.27;59.41;101352.97;460196;114;923103;-73
2021/07/26 04:12:24;;;;;;;;;;;;;;;20.29;59.46;101352.69;458333;114;922715;-77
2021/07/26 04:13:25;;;;;;;;;;;;;;;20.32;59.37;101352.22;459882;114;923043;-75
2021/07/26 04:14:31;;;;;;;;;;;;;;;20.34;59.14;101353.61;458076;114;923165;-71
2021/07/26 04:15:34;;;;;;;;;;;;;;;20.36;59.26;101348.66;458314;114;923145;-71
2021/07/26 04:16:38;;;;;;;;;;;;;;;20.39;59.27;101353.69;458206;114;922750;-73
2021/07/26 04:17:42;;;;;;;;;;;;;;;20.42;59.14;101349.55;458613;114;922693;-76
2021/07/26 04:18:49;;;;;;;;;;;;;;;20.45;59.08;101351.81;458291;114;922720;-73
2021/07/26 04:19:51;;;;;;;;;;;;;;;20.47;58.72;101345.98;458816;114;921460;-79
2021/07/26 04:20:55;;;;;;;;;;;;;;;20.50;58.35;101345.48;458570;114;923148;-75
2021/07/26 04:21:59;;;;;;;;;;;;;;;20.52;57.86;101346.03;458956;114;922674;-77
2021/07/26 04:23:04;;;;;;;;;;;;;;;20.55;57.70;101337.22;459082;114;922679;-75
2021/07/26 04:24:08;;;;;;;;;;;;;;;20.57;57.54;101346.08;459127;114;923907;-75
2021/07/26 04:25:12;;;;;;;;;;;;;;;20.59;57.31;101347.50;460064;114;922651;-76
2021/07/26 04:26:15;;;;;;;;;;;;;;;20.62;57.17;101341.42;460408;114;922647;-75
2021/07/26 04:27:19;;;;;;;;;;;;;;;20.65;57.00;101348.39;459796;114;921559;-74
2021/07/26 04:28:23;;;;;;;;;;;;;;;20.67;56.83;101338.73;459194;114;921487;-75
2021/07/26 04:29:26;;;;;;;;;;;;;;;20.70;56.81;101345.66;457126;114;922715;-73
2021/07/26 04:30:30;;;;;;;;;;;;;;;20.72;56.79;101340.70;452743;116;922700;-72
2021/07/26 04:31:33;;;;;;;;;;;;;;;20.75;56.78;101345.70;458723;115;922674;-75
2021/07/26 04:32:43;;;;;;;;;;;;;;;20.77;56.60;101343.52;458549;115;921460;-75
2021/07/26 04:33:46;;;;;;;;;;;;;;;20.79;56.41;101344.06;458671;115;923383;-70
2021/07/26 04:34:50;;;;;;;;;;;;;;;20.80;56.18;101343.81;455681;115;922656;-72
2021/07/26 04:35:54;;;;;;;;;;;;;;;20.82;56.08;101340.78;455337;115;922714;-72
2021/07/26 04:36:57;;;;;;;;;;;;;;;20.85;56.03;101345.78;455882;115;922775;-72
2021/07/26 04:38:01;;;;;;;;;;;;;;;20.87;56.05;101342.76;455412;115;922660;-71
2021/07/26 04:39:05;;;;;;;;;;;;;;;20.89;56.00;101346.12;455492;115;923470;-72
2021/07/26 04:40:09;;;;;;;;;;;;;;;20.91;55.97;101350.28;456258;114;922623;-70
2021/07/26 04:41:13;;;;;;;;;;;;;;;20.93;56.07;101347.25;456440;115;921679;-74
2021/07/26 04:42:16;;;;;;;;;;;;;;;20.95;56.19;101347.83;455396;115;921594;-73
2021/07/26 04:43:19;;;;;;;;;;;;;;;20.99;56.40;101347.03;455761;115;921569;-73
2021/07/26 04:44:23;;;;;;;;;;;;;;;21.01;56.21;101346.74;456654;115;921524;-74
2021/07/26 04:45:26;;;;;;;;;;;;;;;21.04;56.11;101349.00;456953;115;921514;-74
2021/07/26 04:46:29;;;;;;;;;;;;;;;21.06;55.97;101344.84;457217;115;921444;-73
2021/07/26 04:47:32;;;;;;;;;;;;;;;21.09;55.77;101346.27;457832;115;921569;-74
2021/07/26 04:48:36;;;;;;;;;;;;;;;21.11;55.56;101350.45;457914;115;921435;-73
2021/07/26 04:49:39;;;;;;;;;;;;;;;21.13;55.47;101344.63;457916;115;921527;-74
2021/07/26 04:50:42;;;;;;;;;;;;;;;21.15;55.50;101334.98;458059;115;921608;-73
2021/07/26 04:51:45;;;;;;;;;;;;;;;21.17;55.44;101337.50;458061;115;921523;-74
2021/07/26 04:52:48;;;;;;;;;;;;;;;21.19;55.37;101338.05;458982;115;921522;-73
2021/07/26 04:53:51;;;;;;;;;;;;;;;21.21;55.33;101338.63;458689;115;921459;-75
2021/07/26 04:54:54;;;;;;;;;;;;;;;21.23;55.37;101335.59;458595;115;922647;-74
2021/07/26 04:55:58;;;;;;;;;;;;;;;21.25;55.43;101333.37;455458;115;923104;-73
2021/07/26 04:57:02;;;;;;;;;;;;;;;21.28;55.46;101333.66;455299;115;922668;-73
2021/07/26 04:58:06;;;;;;;;;;;;;;;21.31;55.47;101335.08;454316;115;922719;-73
2021/07/26 04:59:09;;;;;;;;;;;;;;;21.34;55.27;101332.59;455315;115;922740;-74
2021/07/26 05:00:13;;;;;;;;;;;;;;;21.37;55.17;101336.78;455952;115;922717;-74
2021/07/26 05:01:17;;;;;;;;;;;;;;;21.40;54.99;101339.00;456264;115;922660;-74
2021/07/26 05:02:21;;;;;;;;;;;;;;;21.41;54.82;101335.97;455885;115;922643;-73
2021/07/26 05:03:25;;;;;;;;;;;;;;;21.42;54.81;101331.26;456451;115;922664;-74
2021/07/26 05:04:29;;;;;;;;;;;;;;;21.44;54.67;101332.67;457203;115;923244;-75
2021/07/26 05:05:34;;;;;;;;;;;;;;;21.46;54.38;101333.22;456690;115;922685;-74
2021/07/26 05:06:37;;;;;;;;;;;;;;;21.48;54.28;101335.73;456919;115;923126;-75
2021/07/26 05:07:43;;;;;;;;;;;;;;;21.49;54.18;101338.25;457495;114;922711;-73
2021/07/26 05:08:47;;;;;;;;;;;;;;;21.51;54.08;101341.57;457457;115;922805;-72
2021/07/26 05:09:50;;;;;;;;;;;;;;;21.53;53.77;101327.44;457616;115;922647;-74
2021/07/26 05:10:55;;;;;;;;;;;;;;;21.54;53.72;101334.66;457068;115;923136;-74
2021/07/26 05:12:01;;;;;;;;;;;;;;;21.56;53.86;101335.21;456820;115;922607;-75
2021/07/26 05:13:04;;;;;;;;;;;;;;;21.58;53.90;101339.40;458244;115;923084;-76
2021/07/26 05:14:08;;;;;;;;;;;;;;;21.62;53.82;101342.46;458502;115;922684;-75
2021/07/26 05:15:12;;;;;;;;;;;;;;;21.64;53.72;101343.04;457673;115;922702;-74
2021/07/26 05:16:15;;;;;;;;;;;;;;;21.67;53.74;101336.94;458098;115;922669;-74
2021/07/26 05:17:23;;;;;;;;;;;;;;;21.70;53.72;101338.34;459302;115;922702;-73
2021/07/26 05:18:25;;;;;;;;;;;;;;;21.73;53.72;101340.56;456080;115;923135;-74
2021/07/26 05:19:28;;;;;;;;;;;;;;;21.75;53.71;101341.14;455284;115;922611;-74
2021/07/26 05:20:32;;;;;;;;;;;;;;;21.78;53.64;101338.66;455741;115;922691;-74
2021/07/26 05:21:35;;;;;;;;;;;;;;;21.82;53.53;101337.03;456363;115;922547;-74
2021/07/26 05:22:39;;;;;;;;;;;;;;;21.86;53.32;101335.37;456093;115;921512;-75
2021/07/26 05:23:43;;;;;;;;;;;;;;;21.89;53.27;101332.03;455777;115;922623;-73
2021/07/26 05:24:47;;;;;;;;;;;;;;;21.92;53.13;101339.84;456116;115;922010;-74
2021/07/26 05:25:50;;;;;;;;;;;;;;;21.96;53.19;101337.38;456574;115;922662;-72